Time;durP1;ratioP1;P1;durP2;ratioP2;P2;SDS_P1;SDS_P2;PMS_P1;PMS_P2;Temp;Humidity;BMP_temperature;BMP_pressure;BME280_temperature;BME280_humidity;BME280_pressure;Samples;Min_cycle;Max_cycle;Signal;HPM_P1;HPM_P2
2022/09/26 00:01:45;;;;;;;6.68;2.42;;;16.90;66.40;;;;;;7397412;19;20014;-78
2022/09/26 00:04:22;;;;;;;7.55;2.40;;;16.90;66.70;;;;;;7378935;19;20031;-78
2022/09/26 00:06:51;;;;;;;6.53;2.28;;;16.90;66.60;;;;;;7376380;19;20032;-78
2022/09/26 00:09:20;;;;;;;5.95;2.15;;;17.00;66.50;;;;;;7375203;19;20018;-78
2022/09/26 00:11:49;;;;;;;7.80;2.47;;;17.00;66.30;;;;;;7377998;19;20019;-78
2022/09/26 00:14:23;;;;;;;17.00;2.85;;;17.00;66.20;;;;;;7373239;19;20046;-79
2022/09/26 00:16:52;;;;;;;8.90;3.25;;;17.00;66.20;;;;;;7373923;19;20035;-78
2022/09/26 00:19:24;;;;;;;6.60;2.30;;;17.00;66.60;;;;;;7399517;19;20762;-79
2022/09/26 00:21:52;;;;;;;6.78;2.25;;;17.00;67.00;;;;;;7371423;19;20013;-79
2022/09/26 00:24:21;;;;;;;8.10;2.45;;;17.00;66.80;;;;;;7372638;19;20114;-79
2022/09/26 00:26:50;;;;;;;5.50;2.72;;;17.00;66.60;;;;;;7369865;19;20014;-78
2022/09/26 00:29:18;;;;;;;5.70;2.58;;;17.00;66.60;;;;;;7372253;19;20073;-79
2022/09/26 00:31:49;;;;;;;7.32;2.60;;;17.00;66.40;;;;;;7370743;19;20020;-78
2022/09/26 00:34:19;;;;;;;7.93;2.35;;;17.00;66.30;;;;;;7391631;19;20014;-78
2022/09/26 00:36:51;;;;;;;8.10;2.47;;;17.00;66.70;;;;;;7371202;19;20443;-78
2022/09/26 00:39:20;;;;;;;4.45;2.33;;;16.90;66.80;;;;;;7370458;19;20025;-78
2022/09/26 00:41:49;;;;;;;7.88;2.60;;;17.00;66.40;;;;;;7371555;19;20086;-78
2022/09/26 00:44:38;;;;;;;5.05;2.17;;;17.00;66.20;;;;;;7369563;19;20078;-78
2022/09/26 00:47:13;;;;;;;11.50;2.50;;;17.00;66.60;;;;;;7369489;19;20000;-78
2022/09/26 00:49:46;;;;;;;5.57;2.13;;;17.00;66.80;;;;;;7391412;19;20447;-78
2022/09/26 00:52:20;;;;;;;7.35;2.90;;;16.90;66.70;;;;;;7369475;19;20418;-79
2022/09/26 00:54:52;;;;;;;10.77;2.67;;;17.00;66.60;;;;;;7371346;19;20017;-79
2022/09/26 00:57:26;;;;;;;10.00;2.90;;;17.00;66.30;;;;;;7375547;19;20015;-79
2022/09/26 00:59:59;;;;;;;7.43;2.53;;;16.90;66.30;;;;;;7373473;19;20659;-78
2022/09/26 01:02:29;;;;;;;5.97;2.53;;;16.90;66.30;;;;;;7370174;19;20014;-78
2022/09/26 01:04:59;;;;;;;6.20;2.47;;;16.90;66.10;;;;;;7369143;19;20015;-78
2022/09/26 01:07:32;;;;;;;7.85;2.55;;;16.80;66.50;;;;;;7391449;19;20433;-78
2022/09/26 01:10:02;;;;;;;5.35;2.50;;;16.80;66.70;;;;;;7369388;19;20131;-78
2022/09/26 01:12:31;;;;;;;7.28;3.08;;;16.80;66.60;;;;;;7374754;19;20010;-78
2022/09/26 01:15:00;;;;;;;5.25;2.55;;;16.80;66.60;;;;;;7370015;19;20026;-78
2022/09/26 01:17:30;;;;;;;8.70;2.50;;;16.80;66.80;;;;;;7369475;19;20015;-79
2022/09/26 01:20:28;;;;;;;9.18;2.90;;;16.80;66.90;;;;;;7369909;19;20360;-79
2022/09/26 01:23:36;;;;;;;5.63;2.55;;;16.80;66.90;;;;;;7368826;19;20058;-79
2022/09/26 01:26:33;;;;;;;12.10;2.72;;;16.70;66.60;;;;;;7365290;19;20057;-78
2022/09/26 01:29:29;;;;;;;9.68;3.50;;;16.70;66.60;;;;;;7366398;19;20010;-79
2022/09/26 01:34:56;;;;;;;9.05;2.90;;;16.70;67.10;;;;;;7370452;19;20035;-78
2022/09/26 01:37:35;;;;;;;9.07;2.70;;;16.70;67.10;;;;;;7387904;19;20378;-79
2022/09/26 01:40:12;;;;;;;5.80;2.40;;;16.70;67.10;;;;;;7368035;19;20110;-78
2022/09/26 01:42:51;;;;;;;4.63;2.75;;;16.70;67.20;;;;;;7369501;19;20484;-79
2022/09/26 01:45:23;;;;;;;4.00;2.40;;;16.70;67.20;;;;;;7366574;19;20027;-79
2022/09/26 01:48:01;;;;;;;7.88;3.00;;;16.80;67.30;;;;;;7366283;19;20019;-79
2022/09/26 01:50:36;;;;;;;7.93;2.60;;;16.80;67.30;;;;;;7375707;19;20584;-79
2022/09/26 01:53:11;;;;;;;6.53;2.85;;;16.80;67.10;;;;;;7378936;19;20021;-78
2022/09/26 01:55:43;;;;;;;8.52;2.70;;;16.80;67.10;;;;;;7398508;19;20010;-78
2022/09/26 01:58:18;;;;;;;10.02;2.88;;;16.80;67.00;;;;;;7375266;19;20018;-78
2022/09/26 02:00:49;;;;;;;10.10;2.78;;;16.80;67.00;;;;;;7379869;19;20045;-78
2022/09/26 02:03:26;;;;;;;6.00;2.38;;;16.80;66.60;;;;;;7379901;19;20625;-78
2022/09/26 02:05:57;;;;;;;8.75;2.70;;;16.80;66.70;;;;;;7377499;19;20022;-78
2022/09/26 02:08:32;;;;;;;5.53;2.40;;;16.80;66.80;;;;;;7375971;19;20007;-79
2022/09/26 02:11:06;;;;;;;5.43;2.70;;;16.80;66.90;;;;;;7374439;19;20031;-79
2022/09/26 02:13:43;;;;;;;11.65;2.53;;;16.80;66.60;;;;;;7389720;19;20031;-78
2022/09/26 02:16:21;;;;;;;6.43;2.22;;;16.80;66.40;;;;;;7365821;19;20074;-78
2022/09/26 02:18:56;;;;;;;9.70;2.60;;;16.80;66.60;;;;;;7367319;19;20014;-78
2022/09/26 02:21:26;;;;;;;5.43;2.30;;;16.80;66.60;;;;;;7367596;19;20097;-78
2022/09/26 02:23:55;;;;;;;7.70;2.47;;;16.80;66.70;;;;;;7366341;19;20025;-77
2022/09/26 02:26:25;;;;;;;8.77;2.30;;;16.80;66.60;;;;;;7366176;19;20086;-79
2022/09/26 02:28:54;;;;;;;4.32;2.00;;;16.80;66.30;;;;;;7366063;19;20074;-78
2022/09/26 02:31:28;;;;;;;6.63;2.60;;;16.90;66.40;;;;;;7388559;19;20019;-78
2022/09/26 02:33:59;;;;;;;8.73;2.83;;;16.80;66.30;;;;;;7367763;19;20014;-78
2022/09/26 02:36:33;;;;;;;;;;;16.70;67.30;;;;;;7368886;19;20093;-78
2022/09/26 02:39:02;;;;;;;6.47;2.40;;;16.80;66.70;;;;;;7367675;19;19918;-78
2022/09/26 02:41:40;;;;;;;5.13;2.78;;;16.70;66.70;;;;;;7366934;19;20010;-78
2022/09/26 02:44:37;;;;;;;11.13;2.60;;;16.80;67.00;;;;;;7370733;19;20007;-78
2022/09/26 02:47:37;;;;;;;8.88;2.40;;;16.80;66.90;;;;;;7372141;19;20043;-79
2022/09/26 02:50:24;;;;;;;9.82;2.35;;;16.80;66.70;;;;;;7365166;19;20570;-78
2022/09/26 02:53:06;;;;;;;5.80;2.20;;;16.80;66.60;;;;;;7368863;19;20077;-78
2022/09/26 02:55:42;;;;;;;4.22;2.13;;;16.70;66.70;;;;;;7387022;19;20475;-78
2022/09/26 02:58:20;;;;;;;2.95;2.15;;;16.80;66.80;;;;;;7366384;19;20021;-78
2022/09/26 03:00:59;;;;;;;5.65;2.20;;;16.80;66.70;;;;;;7367717;19;20439;-78
2022/09/26 03:03:34;;;;;;;7.07;2.17;;;16.80;66.60;;;;;;7368399;19;20011;-78
2022/09/26 03:06:10;;;;;;;7.05;2.20;;;16.70;66.50;;;;;;7366913;19;20086;-78
2022/09/26 03:08:42;;;;;;;10.15;2.60;;;16.70;67.50;;;;;;7366098;19;20054;-78
2022/09/26 03:11:14;;;;;;;6.10;2.35;;;16.70;66.70;;;;;;7364596;19;20916;-78
2022/09/26 03:13:45;;;;;;;5.32;2.50;;;16.70;66.90;;;;;;7386371;19;20021;-78
2022/09/26 03:16:15;;;;;;;3.87;2.27;;;16.70;66.90;;;;;;7368479;19;20010;-78
2022/09/26 03:18:51;;;;;;;11.75;2.25;;;16.70;66.70;;;;;;7371891;19;20110;-78
2022/09/26 03:21:23;;;;;;;6.40;1.67;;;16.70;66.60;;;;;;7373055;19;20018;-78
2022/09/26 03:23:53;;;;;;;4.75;1.92;;;16.70;65.20;;;;;;7371633;19;20584;-78
2022/09/26 03:26:24;;;;;;;5.88;1.70;;;16.70;65.50;;;;;;7374741;19;20081;-78
2022/09/26 03:28:55;;;;;;;7.50;2.25;;;16.70;65.40;;;;;;7372449;19;20055;-78
2022/09/26 03:31:24;;;;;;;4.32;1.73;;;16.70;65.20;;;;;;7395424;19;20014;-78
2022/09/26 03:33:56;;;;;;;3.53;1.70;;;16.70;64.80;;;;;;7371870;19;20010;-78
2022/09/26 03:36:27;;;;;;;7.38;2.25;;;16.60;64.70;;;;;;7373490;19;20078;-78
2022/09/26 03:38:56;;;;;;;4.05;1.67;;;16.60;65.20;;;;;;7371217;19;20373;-78
2022/09/26 03:41:25;;;;;;;6.30;1.85;;;16.60;65.10;;;;;;7372977;19;20041;-78
2022/09/26 03:43:53;;;;;;;7.72;1.98;;;16.70;65.50;;;;;;7375129;19;20098;-78
2022/09/26 03:46:22;;;;;;;4.68;1.67;;;16.60;65.80;;;;;;7394186;19;20426;-79
2022/09/26 03:48:52;;;;;;;23.73;2.40;;;16.60;64.80;;;;;;7372474;19;20079;-79
2022/09/26 03:51:20;;;;;;;5.32;1.83;;;16.70;65.50;;;;;;7372402;19;20469;-78
2022/09/26 03:53:52;;;;;;;8.25;2.35;;;16.70;65.80;;;;;;7375986;19;20014;-78
2022/09/26 03:56:22;;;;;;;5.75;1.95;;;16.60;65.80;;;;;;7372241;19;20021;-78
2022/09/26 03:58:51;;;;;;;5.03;2.10;;;16.70;66.00;;;;;;7378011;19;20045;-78
2022/09/26 04:01:23;;;;;;;7.35;2.30;;;16.70;66.00;;;;;;7393528;19;20676;-78
2022/09/26 04:03:52;;;;;;;6.22;1.70;;;16.70;65.80;;;;;;7374229;19;20041;-78
2022/09/26 04:06:22;;;;;;;7.03;2.03;;;16.70;64.50;;;;;;7370903;19;20006;-78
2022/09/26 04:08:54;;;;;;;7.60;1.95;;;16.60;64.10;;;;;;7372536;19;20078;-78
2022/09/26 04:11:24;;;;;;;7.93;2.20;;;16.60;63.80;;;;;;7375351;19;20117;-78
2022/09/26 04:13:54;;;;;;;8.80;1.90;;;16.60;64.10;;;;;;7375112;19;20392;-78
2022/09/26 04:16:23;;;;;;;4.65;1.60;;;16.50;64.80;;;;;;7392584;19;20029;-77
2022/09/26 04:18:56;;;;;;;7.13;1.60;;;16.60;64.60;;;;;;7376409;19;20471;-78
2022/09/26 04:21:25;;;;;;;6.25;1.50;;;16.60;64.70;;;;;;7379766;19;20110;-78
2022/09/26 04:23:57;;;;;;;5.75;1.88;;;16.60;63.90;;;;;;7378832;19;20026;-78
2022/09/26 04:26:27;;;;;;;9.15;1.52;;;16.60;63.60;;;;;;7376883;19;20018;-78
2022/09/26 04:28:57;;;;;;;9.30;1.70;;;16.60;63.70;;;;;;7377185;19;20014;-78
2022/09/26 04:31:29;;;;;;;5.10;1.70;;;16.60;63.30;;;;;;7397139;19;20014;-79
2022/09/26 04:33:57;;;;;;;;;;;16.50;63.50;;;;;;7375932;19;20765;-78
2022/09/26 04:36:26;;;;;;;4.13;1.45;;;16.60;63.90;;;;;;7374213;19;19915;-78
2022/09/26 04:38:58;;;;;;;6.38;1.50;;;16.50;63.80;;;;;;7376171;19;20599;-78
2022/09/26 04:41:27;;;;;;;7.57;1.33;;;16.50;63.30;;;;;;7370437;19;20329;-78
2022/09/26 04:43:57;;;;;;;7.75;2.13;;;16.40;63.30;;;;;;7369983;19;20086;-78
2022/09/26 04:46:28;;;;;;;5.80;1.27;;;16.40;63.80;;;;;;7393441;19;20707;-79
2022/09/26 04:48:58;;;;;;;7.20;1.60;;;16.40;63.70;;;;;;7372741;19;20086;-78
2022/09/26 04:51:28;;;;;;;5.95;1.50;;;16.40;63.60;;;;;;7371693;19;20070;-79
2022/09/26 04:54:00;;;;;;;2.67;1.30;;;16.40;63.10;;;;;;7371431;19;20057;-79
2022/09/26 04:56:30;;;;;;;9.63;1.40;;;16.30;63.20;;;;;;7369222;19;20126;-79
2022/09/26 04:59:01;;;;;;;11.30;1.40;;;16.30;63.30;;;;;;7367595;19;20012;-78
2022/09/26 05:01:30;;;;;;;6.13;1.83;;;16.40;63.30;;;;;;7388103;19;20022;-78
2022/09/26 05:03:58;;;;;;;4.65;1.52;;;16.40;63.10;;;;;;7368695;19;20129;-78
2022/09/26 05:06:27;;;;;;;7.05;1.50;;;16.40;63.30;;;;;;7370313;19;20025;-78
2022/09/26 05:08:59;;;;;;;7.28;1.50;;;16.40;63.50;;;;;;7369526;19;20597;-78
2022/09/26 05:11:27;;;;;;;3.95;1.30;;;16.40;64.00;;;;;;7370144;19;20058;-79
2022/09/26 05:13:56;;;;;;;7.50;1.48;;;16.40;64.00;;;;;;7370834;19;20018;-78
2022/09/26 05:16:26;;;;;;;5.25;1.60;;;16.50;63.90;;;;;;7387000;19;20015;-79
2022/09/26 05:18:55;;;;;;;3.88;1.40;;;16.50;63.30;;;;;;7368979;19;20458;-79
2022/09/26 05:21:24;;;;;;;4.07;1.42;;;16.40;62.70;;;;;;7367934;19;20082;-79
2022/09/26 05:26:42;;;;;;;2.25;1.30;;;16.40;63.30;;;;;;7368027;19;20018;-78
2022/09/26 05:29:11;;;;;;;4.40;1.25;;;16.40;63.30;;;;;;7369643;19;20468;-79
2022/09/26 05:31:40;;;;;;;4.10;1.50;;;16.40;62.60;;;;;;7391426;19;20018;-78
2022/09/26 05:34:11;;;;;;;6.65;1.70;;;16.50;62.90;;;;;;7368344;19;20078;-78
2022/09/26 05:36:41;;;;;;;9.68;1.50;;;16.40;62.20;;;;;;7366110;19;20057;-79
2022/09/26 05:40:55;;;;;;;8.98;2.83;;;16.40;62.40;;;;;;7364995;19;20450;-78
2022/09/26 05:41:59;;;;;;;4.32;2.13;;;16.40;62.50;;;;;;7371036;19;20453;-79
2022/09/26 05:44:29;;;;;;;7.95;1.85;;;16.40;62.90;;;;;;7371404;19;20065;-79
2022/09/26 05:46:58;;;;;;;5.38;1.95;;;16.40;63.10;;;;;;7369614;19;20529;-78
2022/09/26 05:49:27;;;;;;;4.85;1.50;;;16.40;62.20;;;;;;7389285;19;20053;-79
2022/09/26 05:51:56;;;;;;;8.02;1.50;;;16.50;62.40;;;;;;7365924;19;20011;-78
2022/09/26 05:54:24;;;;;;;3.95;1.40;;;16.40;62.30;;;;;;7367262;19;20010;-78
2022/09/26 05:56:53;;;;;;;7.22;1.45;;;16.40;62.30;;;;;;7366048;19;20338;-78
2022/09/26 05:59:24;;;;;;;5.20;1.73;;;16.30;62.50;;;;;;7365708;19;20082;-78
2022/09/26 06:01:53;;;;;;;6.60;1.63;;;16.30;62.60;;;;;;7365901;19;20314;-78
2022/09/26 06:04:22;;;;;;;7.93;1.25;;;16.30;63.40;;;;;;7387643;19;20019;-78
2022/09/26 06:06:50;;;;;;;4.15;1.52;;;16.30;62.50;;;;;;7365778;19;20090;-78
2022/09/26 06:09:19;;;;;;;7.90;1.60;;;16.10;62.30;;;;;;7366763;19;20527;-78
2022/09/26 06:11:48;;;;;;;4.10;1.35;;;16.10;63.00;;;;;;7363547;19;20010;-78
2022/09/26 06:14:16;;;;;;;11.07;1.48;;;16.20;63.50;;;;;;7365767;19;20105;-79
2022/09/26 06:16:48;;;;;;;3.85;1.25;;;16.10;62.90;;;;;;7387318;19;20049;-78
2022/09/26 06:19:17;;;;;;;4.50;1.60;;;16.10;63.00;;;;;;7366887;19;20454;-79
2022/09/26 06:21:45;;;;;;;6.15;1.73;;;16.10;63.00;;;;;;7368045;19;20074;-79
2022/09/26 06:24:14;;;;;;;3.75;1.38;;;16.10;62.80;;;;;;7369792;19;20078;-78
2022/09/26 06:26:43;;;;;;;4.15;1.45;;;15.80;63.10;;;;;;7369513;19;20014;-78
2022/09/26 06:29:12;;;;;;;5.60;1.60;;;15.90;63.30;;;;;;7366217;19;20024;-78
2022/09/26 06:31:41;;;;;;;4.10;1.50;;;15.90;63.50;;;;;;7388449;19;20090;-78
2022/09/26 06:34:13;;;;;;;2.92;1.85;;;15.90;63.30;;;;;;7368601;19;20307;-79
2022/09/26 06:36:42;;;;;;;5.20;1.30;;;16.00;63.30;;;;;;7367430;19;20007;-78
2022/09/26 06:39:11;;;;;;;7.38;1.25;;;16.10;63.00;;;;;;7370457;19;20093;-78
2022/09/26 06:41:40;;;;;;;3.72;1.20;;;16.10;63.00;;;;;;7371332;19;20018;-78
2022/09/26 06:44:09;;;;;;;10.48;1.40;;;16.20;62.70;;;;;;7371013;19;20351;-78
2022/09/26 06:46:37;;;;;;;4.15;1.40;;;16.10;62.80;;;;;;7392650;19;20018;-79
2022/09/26 06:49:06;;;;;;;3.78;1.35;;;16.10;63.00;;;;;;7375539;19;20091;-79
2022/09/26 06:51:38;;;;;;;6.55;1.35;;;16.20;62.80;;;;;;7378154;19;20074;-78
2022/09/26 06:54:07;;;;;;;3.63;1.17;;;16.00;63.50;;;;;;7378634;19;20035;-78
2022/09/26 06:56:35;;;;;;;5.57;1.50;;;16.20;63.40;;;;;;7371536;19;20094;-78
2022/09/26 06:59:19;;;;;;;6.00;1.42;;;16.20;62.70;;;;;;7368792;19;20078;-77
2022/09/26 07:01:48;;;;;;;3.50;1.55;;;16.10;62.70;;;;;;7371845;19;20018;-78
2022/09/26 07:04:17;;;;;;;8.75;1.48;;;16.20;63.10;;;;;;7388366;19;20113;-78
2022/09/26 07:06:49;;;;;;;5.47;1.50;;;16.30;63.10;;;;;;7365379;19;20018;-77
2022/09/26 07:09:23;;;;;;;4.80;1.70;;;16.40;62.60;;;;;;7361707;19;20041;-81
2022/09/26 07:11:58;;;;;;;5.45;1.30;;;16.50;62.70;;;;;;7364329;19;20090;-79
2022/09/26 07:14:27;;;;;;;5.60;1.30;;;16.50;63.20;;;;;;7377200;19;20015;-80
2022/09/26 07:16:58;;;;;;;7.68;1.83;;;16.50;62.10;;;;;;7372282;19;20450;-79
2022/09/26 07:19:32;;;;;;;7.33;1.10;;;16.40;62.40;;;;;;7405138;19;20011;-80
2022/09/26 07:22:06;;;;;;;6.07;1.25;;;16.40;62.60;;;;;;7389314;19;20443;-81
2022/09/26 07:24:36;;;;;;;9.32;1.52;;;16.40;62.50;;;;;;7389523;19;20054;-81
2022/09/26 07:27:05;;;;;;;6.07;1.25;;;16.40;62.60;;;;;;7390673;19;20041;-81
2022/09/26 07:29:34;;;;;;;9.15;1.40;;;16.40;62.50;;;;;;7383370;19;20050;-80
2022/09/26 07:32:03;;;;;;;4.95;1.55;;;16.40;62.30;;;;;;7389867;19;20025;-80
2022/09/26 07:34:32;;;;;;;5.88;1.52;;;16.50;63.20;;;;;;7402515;19;20014;-79
2022/09/26 07:37:07;;;;;;;12.48;1.80;;;16.50;62.60;;;;;;7366971;19;20090;-81
2022/09/26 07:39:39;;;;;;;5.32;1.30;;;16.50;62.10;;;;;;7366762;19;20058;-80
2022/09/26 07:42:08;;;;;;;;;;;16.60;61.70;;;;;;7367235;19;20082;-80
2022/09/26 07:44:39;;;;;;;3.92;1.52;;;16.60;61.20;;;;;;7372705;19;19911;-79
2022/09/26 07:52:34;;;;;;;6.65;1.60;;;16.60;61.60;;;;;;7390250;19;20049;-80
2022/09/26 07:55:03;;;;;;;4.18;1.45;;;16.70;61.20;;;;;;7369988;19;20015;-79
2022/09/26 07:57:34;;;;;;;6.78;1.17;;;16.70;60.70;;;;;;7369135;19;20018;-80
2022/09/26 08:00:04;;;;;;;6.75;1.50;;;16.70;60.80;;;;;;7365979;19;20517;-79
2022/09/26 08:02:34;;;;;;;4.82;1.27;;;16.70;60.70;;;;;;7369674;19;20027;-80
2022/09/26 08:05:05;;;;;;;7.30;1.75;;;16.50;60.40;;;;;;7371842;19;20314;-80
2022/09/26 08:07:36;;;;;;;5.18;1.38;;;16.50;60.50;;;;;;7394769;19;20077;-79
2022/09/26 08:10:06;;;;;;;5.03;1.30;;;16.50;60.20;;;;;;7373339;19;20010;-80
2022/09/26 08:12:40;;;;;;;11.00;2.40;;;16.60;60.30;;;;;;7372193;19;20044;-79
2022/09/26 08:15:14;;;;;;;8.07;1.40;;;16.50;60.60;;;;;;7377038;19;20011;-81
2022/09/26 08:17:44;;;;;;;4.03;1.48;;;16.50;60.20;;;;;;7372984;19;20043;-78
2022/09/26 08:20:13;;;;;;;3.78;1.60;;;16.40;60.40;;;;;;7372483;19;20086;-79
2022/09/26 08:22:47;;;;;;;4.85;1.40;;;16.30;60.80;;;;;;7392047;19;20356;-80
2022/09/26 08:25:16;;;;;;;5.95;1.70;;;16.40;61.00;;;;;;7375053;19;20422;-79
2022/09/26 08:27:47;;;;;;;10.15;1.80;;;16.60;60.70;;;;;;7376530;19;20350;-80
2022/09/26 08:30:20;;;;;;;2.73;1.40;;;16.70;60.00;;;;;;7378499;19;20017;-78
2022/09/26 08:33:00;;;;;;;6.30;1.83;;;16.60;59.80;;;;;;7373538;19;20256;-79
2022/09/26 08:35:37;;;;;;;5.63;1.80;;;16.70;59.70;;;;;;7381932;19;20315;-79
2022/09/26 08:38:11;;;;;;;5.82;1.85;;;16.70;59.40;;;;;;7377917;19;20450;-78
2022/09/26 08:40:50;;;;;;;7.95;1.45;;;16.50;60.10;;;;;;7394703;19;20014;-78
2022/09/26 08:43:44;;;;;;;7.38;2.00;;;16.60;59.90;;;;;;7381156;19;20014;-77
2022/09/26 08:46:43;;;;;;;11.80;1.90;;;16.70;59.50;;;;;;7375991;19;20014;-78
2022/09/26 08:49:43;;;;;;;3.85;1.98;;;16.70;59.20;;;;;;7373615;19;20018;-78
2022/09/26 08:52:37;;;;;;;8.65;1.73;;;16.60;59.80;;;;;;7373842;19;20018;-78
2022/09/26 08:55:17;;;;;;;4.70;1.55;;;16.80;59.00;;;;;;7372158;19;20020;-78
2022/09/26 08:57:52;;;;;;;7.10;1.52;;;17.00;58.60;;;;;;7370396;19;20014;-79
2022/09/26 09:00:23;;;;;;;6.72;2.03;;;16.70;59.00;;;;;;7372724;19;20019;-79
2022/09/26 09:03:09;;;;;;;4.97;1.77;;;16.80;59.10;;;;;;7373046;19;20022;-79
2022/09/26 09:05:41;;;;;;;5.85;1.50;;;16.80;58.80;;;;;;7373262;19;20018;-79
2022/09/26 09:08:20;;;;;;;7.70;1.30;;;17.10;58.90;;;;;;7374175;19;20124;-78
2022/09/26 09:11:00;;;;;;;5.13;1.08;;;17.20;58.20;;;;;;7372982;19;20018;-78
2022/09/26 09:13:44;;;;;;;5.05;1.23;;;17.40;58.10;;;;;;7398677;19;20014;-78
2022/09/26 09:16:27;;;;;;;2.65;1.17;;;17.40;57.70;;;;;;7379474;19;20049;-78
2022/09/26 10:45:07;;;;;;;8.97;1.20;;;17.40;59.30;;;;;;7370721;19;20557;-78
2022/09/26 10:47:40;;;;;;;5.60;1.23;;;17.70;58.70;;;;;;7389596;19;20018;-78
2022/09/26 10:50:15;;;;;;;6.60;1.17;;;17.90;58.20;;;;;;7368935;19;20823;-77
2022/09/26 10:52:49;;;;;;;6.78;1.17;;;17.90;57.50;;;;;;7391992;19;20052;-77
2022/09/26 10:55:23;;;;;;;1.42;1.10;;;18.00;58.50;;;;;;7370058;19;20007;-78
2022/09/26 10:57:57;;;;;;;3.28;1.10;;;18.10;59.20;;;;;;7369367;19;20174;-77
2022/09/26 11:00:42;;;;;;;4.00;1.15;;;18.10;59.10;;;;;;7370766;19;20015;-77
2022/09/26 11:03:14;;;;;;;7.57;1.25;;;17.90;59.70;;;;;;7371032;19;20007;-77
2022/09/26 11:05:58;;;;;;;9.13;1.70;;;17.90;60.60;;;;;;7370410;19;20026;-79
2022/09/26 11:08:31;;;;;;;5.15;1.65;;;17.60;61.50;;;;;;7373108;19;20011;-77
2022/09/26 11:11:03;;;;;;;3.33;1.23;;;17.70;62.10;;;;;;7371666;19;20047;-77
2022/09/26 11:13:40;;;;;;;4.85;1.40;;;17.50;63.10;;;;;;7393153;19;20022;-77
2022/09/26 11:16:17;;;;;;;5.97;1.40;;;17.50;64.30;;;;;;7369675;19;20085;-78
2022/09/26 11:18:55;;;;;;;5.35;1.58;;;17.30;64.10;;;;;;7372315;19;20019;-77
2022/09/26 11:21:33;;;;;;;4.88;1.38;;;17.30;65.30;;;;;;7372573;19;20082;-78
2022/09/26 11:24:10;;;;;;;7.38;1.58;;;17.20;65.20;;;;;;7368401;19;20019;-77
2022/09/26 11:29:47;;;;;;;11.73;1.80;;;17.10;66.40;;;;;;7368078;19;20102;-79
2022/09/26 11:32:29;;;;;;;7.70;1.73;;;16.80;68.10;;;;;;7370316;19;20014;-78
2022/09/26 11:35:11;;;;;;;2.60;1.20;;;16.70;68.80;;;;;;7368161;19;20049;-81
2022/09/26 11:38:04;;;;;;;3.67;1.55;;;16.80;69.10;;;;;;7394467;19;20017;-77
2022/09/26 11:40:51;;;;;;;4.53;1.38;;;16.90;69.30;;;;;;7378139;19;20018;-80
2022/09/26 11:43:32;;;;;;;6.30;1.80;;;16.90;69.40;;;;;;7375284;19;20015;-77
2022/09/26 11:46:34;;;;;;;11.57;1.70;;;16.90;69.60;;;;;;7381030;19;20074;-80
2022/09/26 11:49:37;;;;;;;9.32;1.90;;;16.90;69.80;;;;;;7376809;19;20022;-81
2022/09/26 11:52:22;;;;;;;7.57;1.75;;;16.70;71.40;;;;;;7380505;19;20035;-80
2022/09/26 11:55:16;;;;;;;3.70;1.70;;;16.50;72.20;;;;;;7382428;19;20025;-80
2022/09/26 11:57:56;;;;;;;2.80;1.58;;;16.10;73.50;;;;;;7376381;19;20121;-79
2022/09/26 12:00:27;;;;;;;7.80;1.63;;;16.10;74.10;;;;;;7377194;19;20034;-79
2022/09/26 12:03:29;;;;;;;5.25;1.88;;;15.90;75.00;;;;;;7373373;19;20045;-81
2022/09/26 12:06:22;;;;;;;7.80;1.75;;;16.00;75.30;;;;;;7372252;19;20026;-80
2022/09/26 12:09:17;;;;;;;4.07;1.90;;;15.80;74.90;;;;;;7380130;19;20021;-80
2022/09/26 12:40:54;;;;;;;5.45;1.95;;;15.80;77.50;;;;;;7378851;19;20018;-80
2022/09/26 12:47:35;;;;;;;8.77;2.30;;;16.00;78.40;;;;;;7268469;19;2004619;-79
2022/09/26 12:50:32;;;;;;;6.00;1.83;;;16.10;78.80;;;;;;7369141;19;20063;-79
2022/09/26 13:44:27;;;;;;;2.90;1.23;;;15.90;81.20;;;;;;7346560;19;20030;-80
2022/09/26 13:47:24;;;;;;;3.67;1.63;;;15.80;81.50;;;;;;7268098;19;2004693;-80
2022/09/26 16:06:55;;;;;;;5.00;1.40;;;17.10;81.00;;;;;;7215117;19;3671890;-79
2022/09/26 16:09:27;;;;;;;2.97;1.17;;;17.10;81.20;;;;;;7406109;19;20366;-78
2022/09/26 16:11:59;;;;;;;4.40;1.00;;;17.20;81.30;;;;;;7404015;19;20394;-79
2022/09/26 16:14:39;;;;;;;3.88;1.20;;;17.20;81.00;;;;;;7402584;19;20583;-79
2022/09/26 16:17:31;;;;;;;2.40;1.05;;;17.20;80.60;;;;;;7408146;19;20105;-79
2022/09/26 16:27:48;;;;;;;2.72;1.08;;;17.00;79.50;;;;;;7403114;19;20006;-80
2022/09/26 17:04:48;;;;;;;8.05;1.27;;;16.70;81.00;;;;;;7376756;19;20025;-78
2022/09/26 17:07:18;;;;;;;7.10;1.90;;;16.70;80.70;;;;;;7404774;19;20042;-78
2022/09/26 17:10:10;;;;;;;8.88;1.70;;;16.60;80.30;;;;;;7377269;19;20032;-77
2022/09/26 17:12:40;;;;;;;7.63;1.90;;;16.60;80.60;;;;;;7375799;19;20707;-77
2022/09/26 17:15:17;;;;;;;5.85;1.58;;;16.60;80.40;;;;;;7376171;19;20015;-78
2022/09/26 17:17:46;;;;;;;12.38;2.42;;;16.50;80.00;;;;;;7374874;19;20019;-77
2022/09/26 17:20:29;;;;;;;10.15;1.80;;;16.40;80.40;;;;;;7374740;19;20018;-78
2022/09/26 17:23:00;;;;;;;14.40;2.72;;;16.40;81.10;;;;;;7374647;19;20015;-77
2022/09/26 17:25:30;;;;;;;9.98;2.45;;;16.50;81.00;;;;;;7394917;19;20022;-79
2022/09/26 17:28:01;;;;;;;16.63;3.22;;;16.50;81.10;;;;;;7376082;19;20082;-78
2022/09/26 17:30:31;;;;;;;13.57;2.25;;;16.50;81.00;;;;;;7372963;19;20614;-79
2022/09/26 17:33:03;;;;;;;9.95;2.47;;;16.40;79.90;;;;;;7368379;19;20022;-79
2022/09/26 17:35:36;;;;;;;14.13;2.63;;;16.40;80.40;;;;;;7372470;19;20029;-81
2022/09/26 17:38:05;;;;;;;13.35;2.60;;;16.30;79.90;;;;;;7365191;19;20038;-79
2022/09/26 17:40:34;;;;;;;11.38;2.60;;;16.40;80.10;;;;;;7395149;19;20018;-82
2022/09/26 17:43:15;;;;;;;14.95;2.83;;;16.30;79.90;;;;;;7375996;19;20422;-80
2022/09/26 17:45:51;;;;;;;22.13;2.95;;;16.40;80.00;;;;;;7373122;19;20083;-80
2022/09/26 17:48:30;;;;;;;14.27;3.03;;;16.30;80.00;;;;;;7371255;19;20019;-80
2022/09/26 17:51:06;;;;;;;10.10;2.35;;;16.30;80.30;;;;;;7376731;19;20681;-83
2022/09/26 17:53:39;;;;;;;14.85;3.20;;;16.20;79.80;;;;;;7377465;19;20026;-80
2022/09/26 17:56:12;;;;;;;12.15;2.85;;;16.20;79.90;;;;;;7373348;19;20607;-79
2022/09/26 17:58:46;;;;;;;21.35;3.10;;;16.30;80.20;;;;;;7399272;19;20021;-80
2022/09/26 18:01:24;;;;;;;18.23;3.30;;;16.20;80.00;;;;;;7376962;19;20018;-79
2022/09/26 18:03:56;;;;;;;19.85;3.42;;;16.10;79.90;;;;;;7374088;19;20078;-80
2022/09/26 18:06:31;;;;;;;12.88;2.80;;;16.10;79.80;;;;;;7373564;19;20017;-79
2022/09/26 18:09:06;;;;;;;16.63;3.55;;;16.10;79.40;;;;;;7376988;19;20015;-81
2022/09/26 18:11:36;;;;;;;26.77;3.70;;;16.00;79.70;;;;;;7377141;19;20014;-81
2022/09/26 18:14:10;;;;;;;25.40;3.97;;;16.00;79.70;;;;;;7370215;19;20014;-79
2022/09/26 18:16:43;;;;;;;28.80;3.90;;;16.10;80.20;;;;;;7396110;19;20014;-80
2022/09/26 18:19:15;;;;;;;28.42;4.30;;;16.10;80.20;;;;;;7377342;19;20025;-82
2022/09/26 18:21:47;;;;;;;22.10;4.30;;;16.10;79.80;;;;;;7381999;19;20019;-87
2022/09/26 18:24:19;;;;;;;27.65;4.13;;;16.10;80.10;;;;;;7378517;19;20386;-84
2022/09/26 18:27:02;;;;;;;29.17;4.45;;;16.10;80.00;;;;;;7381147;19;20030;-83
2022/09/26 18:29:34;;;;;;;26.52;4.65;;;16.00;79.70;;;;;;7390710;19;20015;-82
2022/09/26 18:32:04;;;;;;;29.05;5.10;;;16.00;80.00;;;;;;7382984;19;20043;-82
2022/09/26 18:34:33;;;;;;;23.70;5.90;;;16.00;80.20;;;;;;7397822;19;20014;-81
2022/09/26 18:37:05;;;;;;;21.98;5.28;;;16.00;80.90;;;;;;7373174;19;20015;-80
2022/09/26 18:39:35;;;;;;;23.48;5.50;;;15.90;80.10;;;;;;7374479;19;20030;-81
2022/09/26 18:42:08;;;;;;;28.67;6.05;;;15.90;79.90;;;;;;7373527;19;20022;-81
2022/09/26 18:44:37;;;;;;;27.52;6.82;;;15.90;79.90;;;;;;7376365;19;20025;-80
2022/09/26 18:47:13;;;;;;;36.58;6.10;;;16.00;79.70;;;;;;7373972;19;20510;-82
2022/09/26 18:49:43;;;;;;;25.95;6.00;;;15.90;79.40;;;;;;7397143;19;20123;-81
2022/09/26 18:52:18;;;;;;;29.23;6.32;;;15.80;79.60;;;;;;7376912;19;20010;-81
2022/09/26 18:58:22;;;;;;;23.20;5.18;;;15.80;79.70;;;;;;7377039;19;20319;-80
2022/09/26 19:00:20;;;;;;;27.80;5.40;;;15.90;79.30;;;;;;7377617;19;20014;-80
2022/09/26 19:02:50;;;;;;;;;;;15.90;79.40;;;;;;7378807;19;20018;-80
2022/09/26 19:05:19;;;;;;;32.97;4.95;;;16.00;79.30;;;;;;7378365;19;19922;-84
2022/09/26 19:07:51;;;;;;;29.52;4.97;;;16.00;78.90;;;;;;7382177;19;20014;-82
2022/09/26 19:10:22;;;;;;;;;;;16.00;78.80;;;;;;7401505;19;20018;-83
2022/09/26 19:12:51;;;;;;;25.45;6.32;;;16.10;79.10;;;;;;7379783;19;19911;-84
2022/09/26 19:15:21;;;;;;;38.42;6.25;;;16.10;78.60;;;;;;7377934;19;20018;-84
2022/09/26 19:17:51;;;;;;;35.00;5.95;;;16.10;78.40;;;;;;7378674;19;20449;-84
2022/09/26 19:20:19;;;;;;;31.10;5.85;;;16.10;78.40;;;;;;7378700;19;20014;-84
2022/09/26 19:22:53;;;;;;;27.55;5.90;;;16.10;78.30;;;;;;7379148;19;20018;-84
2022/09/26 19:25:22;;;;;;;33.00;7.57;;;16.00;77.90;;;;;;7399940;19;20063;-84
2022/09/26 19:27:52;;;;;;;30.20;6.35;;;16.10;78.10;;;;;;7375520;19;20985;-83